sensor_id;sensor_type;location;lat;lon;timestamp;pressure;altitude;pressure_sealevel;temperature;humidity
804;BME280;25687;49.976;8.240;2023-07-20T00:00:49;99878.97;;;18.15;100.00
804;BME280;25687;49.976;8.240;2023-07-20T00:03:19;99868.56;;;18.05;100.00
804;BME280;25687;49.976;8.240;2023-07-20T00:05:50;99874.88;;;18.02;100.00
804;BME280;25687;49.976;8.240;2023-07-20T00:08:16;99868.84;;;18.02;100.00
804;BME280;25687;49.976;8.240;2023-07-20T00:10:42;99871.19;;;17.95;100.00
804;BME280;25687;49.976;8.240;2023-07-20T00:13:09;99871.19;;;17.95;100.00
804;BME280;25687;49.976;8.240;2023-07-20T00:15:35;99880.03;;;17.93;100.00
804;BME280;25687;49.976;8.240;2023-07-20T00:18:01;99878.41;;;17.91;100.00
804;BME280;25687;49.976;8.240;2023-07-20T00:20:26;99879.09;;;17.84;100.00
804;BME280;25687;49.976;8.240;2023-07-20T00:22:51;99879.34;;;17.81;100.00
804;BME280;25687;49.976;8.240;2023-07-20T00:25:17;99877.44;;;17.73;100.00
804;BME280;25687;49.976;8.240;2023-07-20T00:27:43;99868.66;;;17.64;100.00
804;BME280;25687;49.976;8.240;2023-07-20T00:30:08;99872.47;;;17.50;100.00
804;BME280;25687;49.976;8.240;2023-07-20T00:32:34;99876.97;;;17.38;100.00
804;BME280;25687;49.976;8.240;2023-07-20T00:34:59;99877.09;;;17.37;100.00
804;BME280;25687;49.976;8.240;2023-07-20T00:37:24;99882.13;;;17.29;100.00
804;BME280;25687;49.976;8.240;2023-07-20T00:39:50;99888.69;;;17.23;100.00
804;BME280;25687;49.976;8.240;2023-07-20T00:42:16;99891.38;;;17.12;100.00
804;BME280;25687;49.976;8.240;2023-07-20T00:44:41;99890.09;;;16.96;100.00
804;BME280;25687;49.976;8.240;2023-07-20T00:47:06;99892.81;;;16.94;100.00
804;BME280;25687;49.976;8.240;2023-07-20T00:49:32;99893.25;;;17.00;100.00
804;BME280;25687;49.976;8.240;2023-07-20T00:51:59;99894.72;;;16.92;100.00
804;BME280;25687;49.976;8.240;2023-07-20T00:54:25;99899.44;;;16.87;100.00
804;BME280;25687;49.976;8.240;2023-07-20T00:56:51;99899.44;;;16.87;100.00
804;BME280;25687;49.976;8.240;2023-07-20T00:59:18;99894.81;;;16.91;100.00
804;BME280;25687;49.976;8.240;2023-07-20T01:01:43;99900.25;;;16.88;100.00
804;BME280;25687;49.976;8.240;2023-07-20T01:04:08;99894.50;;;16.84;100.00
804;BME280;25687;49.976;8.240;2023-07-20T01:06:53;99886.78;;;16.73;100.00
804;BME280;25687;49.976;8.240;2023-07-20T01:10:33;99893.06;;;16.70;100.00
804;BME280;25687;49.976;8.240;2023-07-20T01:12:41;99891.94;;;16.63;100.00
804;BME280;25687;49.976;8.240;2023-07-20T01:15:08;99891.31;;;16.71;100.00
804;BME280;25687;49.976;8.240;2023-07-20T01:17:35;99888.81;;;16.69;100.00
804;BME280;25687;49.976;8.240;2023-07-20T01:20:00;99893.59;;;16.64;100.00
804;BME280;25687;49.976;8.240;2023-07-20T01:25:34;99893.22;;;16.48;100.00
804;BME280;25687;49.976;8.240;2023-07-20T01:28:37;99895.81;;;16.48;100.00
804;BME280;25687;49.976;8.240;2023-07-20T01:31:26;99891.38;;;16.38;100.00
804;BME280;25687;49.976;8.240;2023-07-20T01:33:55;99891.69;;;16.45;100.00
804;BME280;25687;49.976;8.240;2023-07-20T01:36:22;99890.50;;;16.49;100.00
804;BME280;25687;49.976;8.240;2023-07-20T01:38:49;99897.56;;;16.47;100.00
804;BME280;25687;49.976;8.240;2023-07-20T01:41:15;99897.25;;;16.40;100.00
804;BME280;25687;49.976;8.240;2023-07-20T01:43:40;99894.94;;;16.37;100.00
804;BME280;25687;49.976;8.240;2023-07-20T01:46:06;99890.28;;;16.41;100.00
804;BME280;25687;49.976;8.240;2023-07-20T01:48:31;99883.13;;;16.33;100.00
804;BME280;25687;49.976;8.240;2023-07-20T01:50:56;99883.97;;;16.34;100.00
804;BME280;25687;49.976;8.240;2023-07-20T01:53:22;99881.09;;;16.16;100.00
804;BME280;25687;49.976;8.240;2023-07-20T01:55:49;99884.34;;;16.29;100.00
804;BME280;25687;49.976;8.240;2023-07-20T01:58:14;99881.56;;;16.21;100.00
804;BME280;25687;49.976;8.240;2023-07-20T02:00:39;99883.25;;;16.10;100.00
804;BME280;25687;49.976;8.240;2023-07-20T02:03:05;99877.28;;;15.98;100.00
804;BME280;25687;49.976;8.240;2023-07-20T02:05:30;99882.09;;;16.03;100.00
804;BME280;25687;49.976;8.240;2023-07-20T02:07:55;99878.16;;;15.88;100.00
804;BME280;25687;49.976;8.240;2023-07-20T02:10:21;99882.78;;;15.84;100.00
804;BME280;25687;49.976;8.240;2023-07-20T02:12:46;99881.00;;;15.85;100.00
804;BME280;25687;49.976;8.240;2023-07-20T02:15:12;99888.88;;;15.94;100.00
804;BME280;25687;49.976;8.240;2023-07-20T02:17:39;99884.28;;;15.87;100.00
804;BME280;25687;49.976;8.240;2023-07-20T02:20:07;99883.09;;;15.91;100.00
804;BME280;25687;49.976;8.240;2023-07-20T02:22:34;99877.78;;;15.81;100.00
804;BME280;25687;49.976;8.240;2023-07-20T02:24:59;99889.59;;;15.74;100.00
804;BME280;25687;49.976;8.240;2023-07-20T02:27:24;99890.75;;;15.81;100.00
804;BME280;25687;49.976;8.240;2023-07-20T02:29:50;99890.88;;;15.79;100.00
804;BME280;25687;49.976;8.240;2023-07-20T02:32:15;99887.38;;;15.69;100.00
804;BME280;25687;49.976;8.240;2023-07-20T02:34:40;99894.19;;;15.70;100.00
804;BME280;25687;49.976;8.240;2023-07-20T02:37:06;99896.34;;;15.65;100.00
804;BME280;25687;49.976;8.240;2023-07-20T02:39:31;99887.66;;;15.55;100.00
804;BME280;25687;49.976;8.240;2023-07-20T02:41:56;99898.47;;;15.60;100.00
804;BME280;25687;49.976;8.240;2023-07-20T02:44:22;99892.97;;;15.53;100.00
804;BME280;25687;49.976;8.240;2023-07-20T02:46:47;99894.03;;;15.51;100.00
804;BME280;25687;49.976;8.240;2023-07-20T02:49:14;99891.19;;;15.42;100.00
804;BME280;25687;49.976;8.240;2023-07-20T02:51:40;99887.66;;;15.43;100.00
804;BME280;25687;49.976;8.240;2023-07-20T02:54:05;99881.66;;;15.43;100.00
804;BME280;25687;49.976;8.240;2023-07-20T02:56:30;99884.72;;;15.48;100.00
804;BME280;25687;49.976;8.240;2023-07-20T02:58:55;99892.13;;;15.41;100.00
804;BME280;25687;49.976;8.240;2023-07-20T03:01:22;99888.25;;;15.47;100.00
804;BME280;25687;49.976;8.240;2023-07-20T03:03:48;99890.13;;;15.45;100.00
804;BME280;25687;49.976;8.240;2023-07-20T03:06:14;99888.75;;;15.41;100.00
804;BME280;25687;49.976;8.240;2023-07-20T03:08:40;99891.09;;;15.32;100.00
804;BME280;25687;49.976;8.240;2023-07-20T03:11:06;99891.56;;;15.38;100.00
804;BME280;25687;49.976;8.240;2023-07-20T03:13:31;99891.56;;;15.38;100.00
804;BME280;25687;49.976;8.240;2023-07-20T03:15:57;99891.34;;;15.29;100.00
804;BME280;25687;49.976;8.240;2023-07-20T03:18:22;99879.19;;;15.30;100.00
804;BME280;25687;49.976;8.240;2023-07-20T03:20:47;99882.59;;;15.30;100.00
804;BME280;25687;49.976;8.240;2023-07-20T03:23:13;99886.72;;;15.33;100.00
804;BME280;25687;49.976;8.240;2023-07-20T03:25:40;99886.97;;;15.30;100.00
804;BME280;25687;49.976;8.240;2023-07-20T03:28:05;99885.19;;;15.30;100.00
804;BME280;25687;49.976;8.240;2023-07-20T03:30:31;99884.16;;;15.22;100.00
804;BME280;25687;49.976;8.240;2023-07-20T03:32:56;99894.50;;;15.33;100.00
804;BME280;25687;49.976;8.240;2023-07-20T03:35:21;99893.94;;;15.29;100.00
804;BME280;25687;49.976;8.240;2023-07-20T03:37:47;99900.41;;;15.24;100.00
804;BME280;25687;49.976;8.240;2023-07-20T03:40:12;99895.56;;;15.19;100.00
804;BME280;25687;49.976;8.240;2023-07-20T03:42:39;99894.97;;;15.15;100.00
804;BME280;25687;49.976;8.240;2023-07-20T03:45:05;99899.34;;;15.26;100.00
804;BME280;25687;49.976;8.240;2023-07-20T03:47:31;99901.00;;;15.16;100.00
804;BME280;25687;49.976;8.240;2023-07-20T03:49:56;99905.00;;;15.31;100.00
804;BME280;25687;49.976;8.240;2023-07-20T03:52:22;99906.63;;;15.32;100.00
804;BME280;25687;49.976;8.240;2023-07-20T03:54:47;99906.16;;;15.39;100.00
804;BME280;25687;49.976;8.240;2023-07-20T03:57:12;99903.22;;;15.43;100.00
804;BME280;25687;49.976;8.240;2023-07-20T03:59:38;99912.41;;;15.36;100.00
804;BME280;25687;49.976;8.240;2023-07-20T04:02:04;99915.00;;;15.36;100.00
804;BME280;25687;49.976;8.240;2023-07-20T04:04:31;99911.69;;;15.34;100.00
804;BME280;25687;49.976;8.240;2023-07-20T04:06:56;99906.19;;;15.27;100.00
804;BME280;25687;49.976;8.240;2023-07-20T04:09:21;99911.38;;;15.27;100.00
804;BME280;25687;49.976;8.240;2023-07-20T04:11:46;99919.25;;;15.26;100.00
804;BME280;25687;49.976;8.240;2023-07-20T04:14:12;99919.59;;;15.32;100.00
804;BME280;25687;49.976;8.240;2023-07-20T04:16:37;99917.94;;;15.31;100.00
804;BME280;25687;49.976;8.240;2023-07-20T04:19:02;99914.53;;;15.42;100.00
804;BME280;25687;49.976;8.240;2023-07-20T04:21:28;99911.69;;;15.57;100.00
804;BME280;25687;49.976;8.240;2023-07-20T04:23:53;99908.22;;;15.68;100.00
804;BME280;25687;49.976;8.240;2023-07-20T04:26:18;99909.03;;;15.79;100.00
804;BME280;25687;49.976;8.240;2023-07-20T04:28:43;99918.59;;;15.90;100.00
804;BME280;25687;49.976;8.240;2023-07-20T04:31:13;99920.69;;;15.96;100.00
804;BME280;25687;49.976;8.240;2023-07-20T04:33:38;99916.16;;;16.10;100.00
804;BME280;25687;49.976;8.240;2023-07-20T04:36:04;99916.13;;;16.21;100.00
804;BME280;25687;49.976;8.240;2023-07-20T04:38:29;99920.31;;;16.34;100.00
804;BME280;25687;49.976;8.240;2023-07-20T04:40:55;99920.25;;;16.45;100.00
804;BME280;25687;49.976;8.240;2023-07-20T04:43:20;99918.84;;;16.62;100.00
804;BME280;25687;49.976;8.240;2023-07-20T04:45:46;99922.47;;;16.71;100.00
804;BME280;25687;49.976;8.240;2023-07-20T04:48:13;99922.41;;;16.82;100.00
804;BME280;25687;49.976;8.240;2023-07-20T04:50:40;99930.94;;;16.94;100.00
804;BME280;25687;49.976;8.240;2023-07-20T04:53:05;99930.34;;;17.02;100.00
804;BME280;25687;49.976;8.240;2023-07-20T04:55:31;99931.47;;;17.19;100.00
804;BME280;25687;49.976;8.240;2023-07-20T04:57:58;99924.81;;;17.26;100.00
804;BME280;25687;49.976;8.240;2023-07-20T05:00:24;99931.84;;;17.35;100.00
804;BME280;25687;49.976;8.240;2023-07-20T05:02:50;99930.19;;;17.34;100.00
804;BME280;25687;49.976;8.240;2023-07-20T05:05:15;99937.00;;;17.25;100.00
804;BME280;25687;49.976;8.240;2023-07-20T05:07:40;99929.75;;;17.39;100.00
804;BME280;25687;49.976;8.240;2023-07-20T05:10:06;99929.75;;;17.39;100.00
804;BME280;25687;49.976;8.240;2023-07-20T05:12:32;99939.66;;;17.55;100.00
804;BME280;25687;49.976;8.240;2023-07-20T05:14:57;99925.75;;;17.75;100.00
804;BME280;25687;49.976;8.240;2023-07-20T05:17:22;99934.38;;;17.86;100.00
804;BME280;25687;49.976;8.240;2023-07-20T05:19:48;99928.22;;;17.87;100.00
804;BME280;25687;49.976;8.240;2023-07-20T05:22:14;99929.38;;;17.94;100.00
804;BME280;25687;49.976;8.240;2023-07-20T05:24:39;99932.41;;;18.09;100.00
804;BME280;25687;49.976;8.240;2023-07-20T05:27:05;99936.78;;;18.18;100.00
804;BME280;25687;49.976;8.240;2023-07-20T05:29:30;99921.03;;;18.30;100.00
804;BME280;25687;49.976;8.240;2023-07-20T05:31:55;99920.47;;;18.36;100.00
804;BME280;25687;49.976;8.240;2023-07-20T05:34:21;99925.00;;;18.34;100.00
804;BME280;25687;49.976;8.240;2023-07-20T05:36:46;99925.22;;;18.60;100.00
804;BME280;25687;49.976;8.240;2023-07-20T05:39:11;99919.22;;;18.60;100.00
804;BME280;25687;49.976;8.240;2023-07-20T05:41:36;99932.44;;;18.86;100.00
804;BME280;25687;49.976;8.240;2023-07-20T05:44:02;99924.78;;;18.94;100.00
804;BME280;25687;49.976;8.240;2023-07-20T05:46:27;99930.88;;;19.13;100.00
804;BME280;25687;49.976;8.240;2023-07-20T05:48:52;99930.34;;;19.09;100.00
804;BME280;25687;49.976;8.240;2023-07-20T05:51:17;99939.50;;;19.13;100.00
804;BME280;25687;49.976;8.240;2023-07-20T05:53:43;99941.19;;;19.32;100.00
804;BME280;25687;49.976;8.240;2023-07-20T05:56:08;99938.91;;;19.29;100.00
804;BME280;25687;49.976;8.240;2023-07-20T05:58:35;99947.97;;;19.53;100.00
804;BME280;25687;49.976;8.240;2023-07-20T06:01:00;99951.59;;;19.42;100.00
804;BME280;25687;49.976;8.240;2023-07-20T06:03:27;99946.91;;;19.46;100.00
804;BME280;25687;49.976;8.240;2023-07-20T06:06:01;99945.38;;;19.53;100.00
804;BME280;25687;49.976;8.240;2023-07-20T06:08:28;99954.88;;;19.72;100.00
804;BME280;25687;49.976;8.240;2023-07-20T06:10:54;99955.31;;;19.67;100.00
804;BME280;25687;49.976;8.240;2023-07-20T06:13:19;99956.75;;;19.80;100.00
804;BME280;25687;49.976;8.240;2023-07-20T06:15:45;99956.75;;;19.80;100.00
804;BME280;25687;49.976;8.240;2023-07-20T06:18:10;99960.44;;;19.87;100.00
804;BME280;25687;49.976;8.240;2023-07-20T06:20:36;99961.94;;;20.08;100.00
804;BME280;25687;49.976;8.240;2023-07-20T06:23:01;99972.31;;;20.18;100.00
804;BME280;25687;49.976;8.240;2023-07-20T06:25:26;99970.59;;;20.44;99.84
804;BME280;25687;49.976;8.240;2023-07-20T06:27:51;99967.81;;;20.64;97.77
804;BME280;25687;49.976;8.240;2023-07-20T06:30:17;99968.81;;;20.89;95.36
804;BME280;25687;49.976;8.240;2023-07-20T06:32:42;99962.34;;;21.02;95.56
804;BME280;25687;49.976;8.240;2023-07-20T06:35:08;99964.13;;;21.36;92.74
804;BME280;25687;49.976;8.240;2023-07-20T06:37:33;99965.59;;;21.30;92.07
804;BME280;25687;49.976;8.240;2023-07-20T06:39:59;99969.50;;;21.69;91.59
804;BME280;25687;49.976;8.240;2023-07-20T06:42:24;99974.66;;;22.20;88.99
804;BME280;25687;49.976;8.240;2023-07-20T06:44:49;99971.50;;;23.24;81.06
804;BME280;25687;49.976;8.240;2023-07-20T06:47:14;99973.47;;;23.93;73.35
804;BME280;25687;49.976;8.240;2023-07-20T06:49:40;99973.47;;;25.22;64.71
804;BME280;25687;49.976;8.240;2023-07-20T06:52:06;99974.13;;;25.09;63.64
804;BME280;25687;49.976;8.240;2023-07-20T06:54:31;99976.44;;;25.19;62.89
804;BME280;25687;49.976;8.240;2023-07-20T06:56:57;99976.75;;;24.94;63.40
804;BME280;25687;49.976;8.240;2023-07-20T06:59:22;99984.44;;;25.26;61.27
804;BME280;25687;49.976;8.240;2023-07-20T07:01:49;99978.94;;;25.72;59.77
804;BME280;25687;49.976;8.240;2023-07-20T07:04:14;99986.72;;;26.02;54.22
804;BME280;25687;49.976;8.240;2023-07-20T07:06:40;99989.84;;;27.48;51.25
804;BME280;25687;49.976;8.240;2023-07-20T07:09:05;99984.38;;;27.56;47.82
804;BME280;25687;49.976;8.240;2023-07-20T07:11:30;99985.59;;;27.12;49.28
804;BME280;25687;49.976;8.240;2023-07-20T07:13:56;99983.50;;;26.72;51.42
804;BME280;25687;49.976;8.240;2023-07-20T07:16:21;99984.38;;;27.14;50.73
804;BME280;25687;49.976;8.240;2023-07-20T07:18:47;99988.19;;;27.40;50.57
804;BME280;25687;49.976;8.240;2023-07-20T07:21:13;99985.53;;;26.98;50.28
804;BME280;25687;49.976;8.240;2023-07-20T07:23:39;99991.41;;;26.44;52.06
804;BME280;25687;49.976;8.240;2023-07-20T07:26:04;99991.44;;;27.42;48.18
804;BME280;25687;49.976;8.240;2023-07-20T07:28:30;99987.56;;;28.60;44.80
804;BME280;25687;49.976;8.240;2023-07-20T07:30:56;99994.28;;;28.09;44.67
804;BME280;25687;49.976;8.240;2023-07-20T07:33:22;99996.81;;;27.20;49.03
804;BME280;25687;49.976;8.240;2023-07-20T07:35:48;99994.34;;;26.84;51.94
804;BME280;25687;49.976;8.240;2023-07-20T07:38:14;99992.50;;;25.91;54.47
804;BME280;25687;49.976;8.240;2023-07-20T07:40:39;99997.06;;;25.82;54.69
804;BME280;25687;49.976;8.240;2023-07-20T07:43:04;99994.97;;;25.11;57.42
804;BME280;25687;49.976;8.240;2023-07-20T07:45:30;99991.34;;;25.57;55.54
804;BME280;25687;49.976;8.240;2023-07-20T07:47:55;99998.03;;;26.39;53.26
804;BME280;25687;49.976;8.240;2023-07-20T07:50:20;99987.88;;;27.77;46.86
804;BME280;25687;49.976;8.240;2023-07-20T07:52:46;99986.16;;;28.24;44.42
804;BME280;25687;49.976;8.240;2023-07-20T07:55:11;99990.66;;;29.43;39.49
804;BME280;25687;49.976;8.240;2023-07-20T07:57:36;99991.69;;;31.26;37.78
804;BME280;25687;49.976;8.240;2023-07-20T08:00:02;100000.03;;;32.44;34.45
804;BME280;25687;49.976;8.240;2023-07-20T08:02:28;99999.38;;;31.15;36.38
804;BME280;25687;49.976;8.240;2023-07-20T08:04:54;100002.03;;;30.53;37.89
804;BME280;25687;49.976;8.240;2023-07-20T08:07:19;100002.28;;;30.88;36.95
804;BME280;25687;49.976;8.240;2023-07-20T08:09:44;100001.13;;;30.08;39.45
804;BME280;25687;49.976;8.240;2023-07-20T08:12:10;100001.84;;;30.91;36.98
804;BME280;25687;49.976;8.240;2023-07-20T08:14:35;100002.44;;;31.12;34.86
804;BME280;25687;49.976;8.240;2023-07-20T08:17:00;100003.97;;;32.54;33.69
804;BME280;25687;49.976;8.240;2023-07-20T08:19:25;99999.00;;;32.22;33.40
804;BME280;25687;49.976;8.240;2023-07-20T08:21:51;100003.59;;;31.72;34.32
804;BME280;25687;49.976;8.240;2023-07-20T08:24:16;100000.34;;;29.62;38.30
804;BME280;25687;49.976;8.240;2023-07-20T08:26:41;100003.25;;;28.22;40.79
804;BME280;25687;49.976;8.240;2023-07-20T08:29:06;100000.69;;;27.66;42.22
804;BME280;25687;49.976;8.240;2023-07-20T08:31:32;99999.47;;;29.23;40.62
804;BME280;25687;49.976;8.240;2023-07-20T08:33:57;100000.22;;;30.72;36.63
804;BME280;25687;49.976;8.240;2023-07-20T08:36:23;100002.06;;;30.90;37.28
804;BME280;25687;49.976;8.240;2023-07-20T08:38:48;100001.66;;;32.57;32.90
804;BME280;25687;49.976;8.240;2023-07-20T08:41:14;100007.19;;;33.56;30.81
804;BME280;25687;49.976;8.240;2023-07-20T08:43:42;100006.16;;;32.45;31.89
804;BME280;25687;49.976;8.240;2023-07-20T08:46:08;99993.47;;;28.89;37.68
804;BME280;25687;49.976;8.240;2023-07-20T08:48:33;99993.88;;;28.32;40.62
804;BME280;25687;49.976;8.240;2023-07-20T08:50:59;99995.94;;;30.46;36.50
804;BME280;25687;49.976;8.240;2023-07-20T08:53:27;100004.94;;;32.05;33.41
804;BME280;25687;49.976;8.240;2023-07-20T08:55:53;99996.91;;;31.81;33.10
804;BME280;25687;49.976;8.240;2023-07-20T08:58:18;99999.00;;;30.17;36.56
804;BME280;25687;49.976;8.240;2023-07-20T09:00:44;99990.38;;;28.92;39.21
804;BME280;25687;49.976;8.240;2023-07-20T09:03:11;99990.38;;;29.97;37.28
804;BME280;25687;49.976;8.240;2023-07-20T09:05:36;99997.94;;;30.94;35.41
804;BME280;25687;49.976;8.240;2023-07-20T09:08:02;99993.59;;;29.67;37.12
804;BME280;25687;49.976;8.240;2023-07-20T09:10:30;99987.56;;;28.60;38.70
804;BME280;25687;49.976;8.240;2023-07-20T09:12:55;99989.84;;;27.48;42.57
804;BME280;25687;49.976;8.240;2023-07-20T09:15:22;99987.72;;;27.92;41.83
804;BME280;25687;49.976;8.240;2023-07-20T09:17:48;99985.94;;;28.39;39.39
804;BME280;25687;49.976;8.240;2023-07-20T09:20:15;99981.69;;;28.58;41.22
804;BME280;25687;49.976;8.240;2023-07-20T09:22:41;99983.53;;;29.82;39.52
804;BME280;25687;49.976;8.240;2023-07-20T09:25:11;99990.72;;;30.83;36.10
804;BME280;25687;49.976;8.240;2023-07-20T09:27:42;99989.63;;;32.43;32.94
804;BME280;25687;49.976;8.240;2023-07-20T09:30:08;99984.66;;;31.62;33.44
804;BME280;25687;49.976;8.240;2023-07-20T09:32:41;99986.22;;;29.23;36.85
804;BME280;25687;49.976;8.240;2023-07-20T09:35:16;99985.53;;;28.49;39.02
804;BME280;25687;49.976;8.240;2023-07-20T09:38:00;99983.81;;;27.74;40.87
804;BME280;25687;49.976;8.240;2023-07-20T09:40:26;99984.31;;;28.11;41.74
804;BME280;25687;49.976;8.240;2023-07-20T09:42:53;99985.13;;;27.01;43.74
804;BME280;25687;49.976;8.240;2023-07-20T09:45:33;99981.78;;;26.57;47.00
804;BME280;25687;49.976;8.240;2023-07-20T09:48:09;99975.34;;;25.58;50.98
804;BME280;25687;49.976;8.240;2023-07-20T09:50:40;99971.09;;;25.12;53.99
804;BME280;25687;49.976;8.240;2023-07-20T09:53:06;99973.28;;;25.09;54.89
804;BME280;25687;49.976;8.240;2023-07-20T09:55:32;99975.47;;;25.05;56.18
804;BME280;25687;49.976;8.240;2023-07-20T09:57:59;99974.75;;;24.58;60.44
804;BME280;25687;49.976;8.240;2023-07-20T10:00:24;99981.06;;;24.11;64.02
804;BME280;25687;49.976;8.240;2023-07-20T10:02:51;99970.56;;;23.79;67.91
804;BME280;25687;49.976;8.240;2023-07-20T10:05:17;99970.91;;;23.76;66.05
804;BME280;25687;49.976;8.240;2023-07-20T10:07:47;99976.91;;;23.93;65.84
804;BME280;25687;49.976;8.240;2023-07-20T10:10:14;99967.38;;;23.92;62.56
804;BME280;25687;49.976;8.240;2023-07-20T10:12:41;99964.25;;;24.20;62.13
804;BME280;25687;49.976;8.240;2023-07-20T10:15:11;99960.66;;;25.19;59.61
804;BME280;25687;49.976;8.240;2023-07-20T10:17:47;99960.97;;;24.94;54.79
804;BME280;25687;49.976;8.240;2023-07-20T10:20:16;99951.44;;;24.78;59.15
804;BME280;25687;49.976;8.240;2023-07-20T10:22:44;99948.25;;;24.98;58.56
804;BME280;25687;49.976;8.240;2023-07-20T10:25:10;99951.63;;;25.07;56.94
804;BME280;25687;49.976;8.240;2023-07-20T10:27:36;99953.38;;;25.51;56.18
804;BME280;25687;49.976;8.240;2023-07-20T10:30:02;99955.50;;;25.26;58.03
804;BME280;25687;49.976;8.240;2023-07-20T10:32:28;99961.19;;;25.59;53.37
804;BME280;25687;49.976;8.240;2023-07-20T10:34:56;99954.59;;;25.04;58.97
804;BME280;25687;49.976;8.240;2023-07-20T10:37:47;99941.44;;;25.04;56.72
804;BME280;25687;49.976;8.240;2023-07-20T10:40:28;99934.19;;;24.76;59.97
804;BME280;25687;49.976;8.240;2023-07-20T10:43:00;99935.78;;;24.62;57.17
804;BME280;25687;49.976;8.240;2023-07-20T10:48:04;99929.25;;;25.33;55.37
804;BME280;25687;49.976;8.240;2023-07-20T10:50:32;99930.81;;;25.64;52.93
804;BME280;25687;49.976;8.240;2023-07-20T10:53:10;99933.06;;;25.45;56.96
804;BME280;25687;49.976;8.240;2023-07-20T10:55:35;99927.00;;;25.29;56.81
804;BME280;25687;49.976;8.240;2023-07-20T10:58:11;99927.66;;;24.87;60.01
804;BME280;25687;49.976;8.240;2023-07-20T11:00:38;99921.06;;;24.91;56.17
804;BME280;25687;49.976;8.240;2023-07-20T11:03:29;99917.41;;;25.07;58.96
804;BME280;25687;49.976;8.240;2023-07-20T11:05:56;99919.13;;;25.88;56.57
804;BME280;25687;49.976;8.240;2023-07-20T11:08:48;99918.44;;;26.51;49.03
804;BME280;25687;49.976;8.240;2023-07-20T11:11:27;99921.94;;;25.86;48.16
804;BME280;25687;49.976;8.240;2023-07-20T11:13:57;99922.69;;;25.07;51.64
804;BME280;25687;49.976;8.240;2023-07-20T11:16:34;99927.00;;;25.14;49.54
804;BME280;25687;49.976;8.240;2023-07-20T11:18:59;99915.22;;;24.95;52.97
804;BME280;25687;49.976;8.240;2023-07-20T11:21:25;99908.88;;;25.05;53.57
804;BME280;25687;49.976;8.240;2023-07-20T11:23:52;99916.41;;;24.40;52.25
804;BME280;25687;49.976;8.240;2023-07-20T11:26:17;99912.75;;;24.64;52.19
804;BME280;25687;49.976;8.240;2023-07-20T11:28:48;99900.84;;;24.38;58.22
804;BME280;25687;49.976;8.240;2023-07-20T11:31:14;99907.25;;;25.04;54.50
804;BME280;25687;49.976;8.240;2023-07-20T11:33:41;99900.31;;;25.69;49.35
804;BME280;25687;49.976;8.240;2023-07-20T11:36:08;99900.72;;;25.51;48.99
804;BME280;25687;49.976;8.240;2023-07-20T11:38:33;99894.53;;;25.59;48.54
804;BME280;25687;49.976;8.240;2023-07-20T11:40:59;99893.31;;;25.25;49.96
804;BME280;25687;49.976;8.240;2023-07-20T11:43:24;99897.22;;;25.14;51.49
804;BME280;25687;49.976;8.240;2023-07-20T11:45:51;99896.53;;;25.57;49.90
804;BME280;25687;49.976;8.240;2023-07-20T11:48:17;99893.59;;;25.15;50.46
804;BME280;25687;49.976;8.240;2023-07-20T11:50:43;99900.16;;;24.89;51.15
804;BME280;25687;49.976;8.240;2023-07-20T11:53:08;99898.09;;;24.85;52.15
804;BME280;25687;49.976;8.240;2023-07-20T11:55:34;99898.97;;;25.37;48.65
804;BME280;25687;49.976;8.240;2023-07-20T11:58:03;99894.44;;;25.52;46.58
804;BME280;25687;49.976;8.240;2023-07-20T12:00:28;99885.16;;;26.00;47.08
804;BME280;25687;49.976;8.240;2023-07-20T12:02:53;99880.09;;;25.98;44.00
804;BME280;25687;49.976;8.240;2023-07-20T12:05:19;99880.44;;;26.45;42.67
804;BME280;25687;49.976;8.240;2023-07-20T12:07:44;99879.22;;;26.41;43.63
804;BME280;25687;49.976;8.240;2023-07-20T12:10:11;99875.91;;;26.32;42.99
804;BME280;25687;49.976;8.240;2023-07-20T12:12:41;99873.50;;;26.72;42.50
804;BME280;25687;49.976;8.240;2023-07-20T12:15:17;99873.81;;;26.91;41.49
804;BME280;25687;49.976;8.240;2023-07-20T12:17:44;99881.47;;;27.28;40.08
804;BME280;25687;49.976;8.240;2023-07-20T12:20:10;99869.06;;;27.21;39.68
804;BME280;25687;49.976;8.240;2023-07-20T12:22:43;99861.06;;;26.95;40.27
804;BME280;25687;49.976;8.240;2023-07-20T12:25:09;99862.66;;;26.54;41.94
804;BME280;25687;49.976;8.240;2023-07-20T12:27:37;99859.50;;;26.72;41.76
804;BME280;25687;49.976;8.240;2023-07-20T12:30:06;99862.44;;;27.46;41.95
804;BME280;25687;49.976;8.240;2023-07-20T12:32:32;99864.41;;;27.30;38.56
804;BME280;25687;49.976;8.240;2023-07-20T12:34:58;99852.19;;;27.22;39.22
804;BME280;25687;49.976;8.240;2023-07-20T12:37:25;99856.63;;;27.02;40.43
804;BME280;25687;49.976;8.240;2023-07-20T12:39:51;99843.78;;;26.22;42.64
804;BME280;25687;49.976;8.240;2023-07-20T12:42:16;99859.22;;;25.53;44.88
804;BME280;25687;49.976;8.240;2023-07-20T12:44:42;99857.06;;;24.90;46.30
804;BME280;25687;49.976;8.240;2023-07-20T12:47:07;99852.47;;;24.62;47.30
804;BME280;25687;49.976;8.240;2023-07-20T12:49:32;99845.91;;;24.58;47.92
804;BME280;25687;49.976;8.240;2023-07-20T12:51:58;99851.31;;;24.65;47.96
804;BME280;25687;49.976;8.240;2023-07-20T12:54:23;99844.66;;;24.54;47.21
804;BME280;25687;49.976;8.240;2023-07-20T12:56:48;99843.44;;;25.02;45.09
804;BME280;25687;49.976;8.240;2023-07-20T12:59:14;99840.53;;;25.11;44.22
804;BME280;25687;49.976;8.240;2023-07-20T13:01:39;99836.31;;;25.32;42.50
804;BME280;25687;49.976;8.240;2023-07-20T13:04:06;99837.75;;;25.35;43.08
804;BME280;25687;49.976;8.240;2023-07-20T13:06:34;99829.56;;;25.08;42.79
804;BME280;25687;49.976;8.240;2023-07-20T13:09:00;99825.88;;;25.24;43.29
804;BME280;25687;49.976;8.240;2023-07-20T13:11:25;99820.72;;;25.52;43.60
804;BME280;25687;49.976;8.240;2023-07-20T13:13:50;99821.03;;;25.42;44.86
804;BME280;25687;49.976;8.240;2023-07-20T13:16:15;99813.22;;;25.77;44.44
804;BME280;25687;49.976;8.240;2023-07-20T13:18:42;99803.75;;;26.40;43.88